createdAt,value
2023-03-15T00:02:58.527Z,63.54
2023-03-15T00:08:04.387Z,63.54
2023-03-15T00:13:07.508Z,63.35
2023-03-15T00:18:10.922Z,63.54
2023-03-15T00:23:14.886Z,63.53
2023-03-15T00:28:36.978Z,63.52
2023-03-15T00:33:39.985Z,63.38
2023-03-15T00:39:01.495Z,63.41
2023-03-15T00:44:24.824Z,63.38
2023-03-15T00:49:27.788Z,63.35
2023-03-15T00:54:33.654Z,63.30
2023-03-15T00:59:36.708Z,63.26
2023-03-15T01:04:40.133Z,63.36
2023-03-15T01:09:45.841Z,63.47
2023-03-15T01:14:50.719Z,63.07
2023-03-15T01:19:53.745Z,63.34
2023-03-15T01:24:56.866Z,63.10
2023-03-15T01:29:59.882Z,63.07
2023-03-15T01:35:02.943Z,63.15
2023-03-15T01:40:09.288Z,63.00
2023-03-15T01:45:50.133Z,63.10
2023-03-15T01:50:55.466Z,63.02
2023-03-15T01:56:00.141Z,62.90
2023-03-15T02:01:10.720Z,62.70
2023-03-15T02:06:20.315Z,62.55
2023-03-15T02:11:42.775Z,62.48
2023-03-15T02:17:04.580Z,62.47
2023-03-15T02:22:23.516Z,62.43
2023-03-15T02:27:35.830Z,62.21
2023-03-15T02:32:39.219Z,62.40
2023-03-15T02:37:46.097Z,62.45
2023-03-15T02:42:54.982Z,62.39
2023-03-15T02:47:58.509Z,62.56
2023-03-15T02:53:03.324Z,62.34
2023-03-15T02:58:24.820Z,62.25
2023-03-15T03:03:27.842Z,62.41
2023-03-15T03:08:31.077Z,62.62
2023-03-15T03:13:34.094Z,62.76
2023-03-15T03:18:40.074Z,63.09
2023-03-15T03:23:46.388Z,63.31
2023-03-15T03:28:49.872Z,63.02
2023-03-15T03:33:53.271Z,62.93
2023-03-15T03:38:57.315Z,62.71
2023-03-15T03:44:00.843Z,62.83
2023-03-15T03:49:03.921Z,62.25
2023-03-15T03:54:07.609Z,61.83
2023-03-15T03:59:11.065Z,61.42
2023-03-15T04:04:26.687Z,60.89
2023-03-15T04:09:30.477Z,60.39
2023-03-15T04:14:33.725Z,59.70
2023-03-15T04:19:38.022Z,59.13
2023-03-15T04:24:42.635Z,58.70
2023-03-15T04:29:59.664Z,58.49
2023-03-15T04:35:36.534Z,58.10
2023-03-15T04:40:56.574Z,57.34
2023-03-15T04:46:34.133Z,56.74
2023-03-15T04:51:57.708Z,56.25
2023-03-15T04:57:26.805Z,54.96
2023-03-15T05:02:57.426Z,54.33
2023-03-15T05:08:21.156Z,53.55
2023-03-15T05:13:42.131Z,52.86
2023-03-15T05:19:04.104Z,52.69
2023-03-15T05:24:27.321Z,51.90
2023-03-15T05:29:36.095Z,51.55
2023-03-15T05:34:44.969Z,50.87
2023-03-15T05:40:08.406Z,50.91
2023-03-15T05:45:34.472Z,50.35
2023-03-15T05:51:00.303Z,49.49
2023-03-15T05:56:21.908Z,49.29
2023-03-15T06:01:43.218Z,49.03
2023-03-15T06:06:54.076Z,48.69
2023-03-15T06:11:59.205Z,48.39
2023-03-15T06:17:02.575Z,48.01
2023-03-15T06:22:06.636Z,47.17
2023-03-15T06:27:32.922Z,47.28
2023-03-15T06:32:36.902Z,46.79
2023-03-15T06:37:40.239Z,46.60
2023-03-15T06:42:43.184Z,45.61
2023-03-15T06:47:48.821Z,45.52
2023-03-15T06:52:53.262Z,44.90
2023-03-15T06:57:56.642Z,44.49
2023-03-15T07:02:59.681Z,44.42
2023-03-15T07:08:02.582Z,43.81
2023-03-15T07:13:07.099Z,43.62
2023-03-15T07:18:09.988Z,43.69
2023-03-15T07:23:13.140Z,44.39
2023-03-15T07:28:16.116Z,43.23
2023-03-15T07:33:38.048Z,42.47
2023-03-15T07:38:43.186Z,42.96
2023-03-15T07:43:46.282Z,42.76
2023-03-15T07:48:54.422Z,41.61
2023-03-15T07:53:57.655Z,41.11
2023-03-15T07:59:00.719Z,41.28
2023-03-15T08:04:04.276Z,41.29
2023-03-15T08:09:07.128Z,40.82
2023-03-15T08:14:10.042Z,41.12
2023-03-15T08:19:12.953Z,41.23
2023-03-15T08:24:15.891Z,40.64
2023-03-15T08:29:18.913Z,40.63
2023-03-15T08:34:22.062Z,40.55
2023-03-15T08:39:25.054Z,41.36
2023-03-15T08:44:28.116Z,41.00
2023-03-15T08:49:31.478Z,40.12
2023-03-15T08:54:34.749Z,40.48
2023-03-15T08:59:37.510Z,40.68
2023-03-15T09:04:40.448Z,40.07
2023-03-15T09:09:48.310Z,40.04
2023-03-15T09:14:51.136Z,39.07
2023-03-15T09:19:54.129Z,38.58
2023-03-15T09:24:57.059Z,38.84
2023-03-15T09:30:00.237Z,39.96
2023-03-15T09:35:08.918Z,40.11
2023-03-15T09:40:31.042Z,40.38
2023-03-15T09:46:07.607Z,39.87
2023-03-15T09:51:27.761Z,39.91
2023-03-15T09:57:03.805Z,40.17
2023-03-15T10:02:27.522Z,40.18
2023-03-15T10:07:31.368Z,40.16
2023-03-15T10:12:40.991Z,40.87
2023-03-15T10:18:07.120Z,40.84
2023-03-15T10:23:23.831Z,40.64
2023-03-15T10:28:34.821Z,40.76
2023-03-15T10:33:41.836Z,40.03
2023-03-15T10:38:47.983Z,41.83
2023-03-15T10:44:05.184Z,41.62
2023-03-15T10:49:12.221Z,40.55
2023-03-15T10:54:20.573Z,40.85
2023-03-15T11:00:17.598Z,41.02
2023-03-15T11:05:20.765Z,41.24
2023-03-15T11:10:43.113Z,40.75
2023-03-15T11:16:04.413Z,40.72
2023-03-15T11:21:12.696Z,40.44
2023-03-15T11:26:32.169Z,40.33
2023-03-15T11:31:36.721Z,40.66
2023-03-15T11:36:41.681Z,40.03
2023-03-15T11:41:53.077Z,40.37
2023-03-15T11:47:14.026Z,40.00
2023-03-15T11:52:18.422Z,40.57
2023-03-15T11:57:46.258Z,39.88
2023-03-15T12:02:58.198Z,39.87
2023-03-15T12:08:16.931Z,40.38
2023-03-15T12:13:24.367Z,41.29
2023-03-15T12:18:33.839Z,41.47
2023-03-15T12:23:43.684Z,42.29
2023-03-15T12:29:01.479Z,42.58
2023-03-15T12:34:05.918Z,43.86
2023-03-15T12:39:17.792Z,44.51
2023-03-15T12:44:32.350Z,45.21
2023-03-15T12:49:46.313Z,46.11
2023-03-15T12:55:00.842Z,45.87
2023-03-15T13:00:15.972Z,46.20
2023-03-15T13:05:21.156Z,46.23
2023-03-15T13:10:36.828Z,46.67
2023-03-15T13:16:06.029Z,47.00
2023-03-15T13:21:24.347Z,47.44
2023-03-15T13:26:35.007Z,47.68
2023-03-15T13:31:38.190Z,48.17
2023-03-15T13:36:46.063Z,48.62
2023-03-15T13:41:50.127Z,48.90
2023-03-15T13:46:53.808Z,49.15
2023-03-15T13:52:15.139Z,49.75
2023-03-15T13:57:22.225Z,50.48
2023-03-15T14:02:45.728Z,50.92
2023-03-15T14:07:50.288Z,50.98
2023-03-15T14:12:54.687Z,51.04
2023-03-15T14:18:04.181Z,51.20
2023-03-15T14:23:11.862Z,51.80
2023-03-15T14:28:16.803Z,51.66
2023-03-15T14:33:38.740Z,52.14
2023-03-15T14:38:51.182Z,52.16
2023-03-15T14:43:54.428Z,52.81
2023-03-15T14:48:57.853Z,52.81
2023-03-15T14:54:01.309Z,53.42
2023-03-15T14:59:10.488Z,53.32
2023-03-15T15:04:14.381Z,53.38
2023-03-15T15:09:22.092Z,53.00
2023-03-15T15:14:25.037Z,51.81
2023-03-15T15:19:47.114Z,52.08
2023-03-15T15:24:51.407Z,51.74
2023-03-15T15:29:54.271Z,51.02
2023-03-15T15:34:56.984Z,50.67
2023-03-15T15:40:00.041Z,50.36
2023-03-15T15:45:03.002Z,50.80
2023-03-15T15:50:07.033Z,50.84
2023-03-15T15:55:26.102Z,51.11
2023-03-15T16:00:30.233Z,51.67
2023-03-15T16:05:35.322Z,52.12
2023-03-15T16:10:38.871Z,52.98
2023-03-15T16:15:41.695Z,52.77
2023-03-15T16:20:44.702Z,53.46
2023-03-15T16:25:54.285Z,53.55
2023-03-15T16:30:57.141Z,53.84
2023-03-15T16:36:01.803Z,53.87
2023-03-15T16:41:04.854Z,54.35
2023-03-15T16:46:14.407Z,54.60
2023-03-15T16:51:17.638Z,55.12
2023-03-15T16:56:20.854Z,55.56
2023-03-15T17:01:26.122Z,55.71
2023-03-15T17:06:29.871Z,56.45
2023-03-15T17:11:33.245Z,56.73
2023-03-15T17:16:36.352Z,56.98
2023-03-15T17:21:39.837Z,57.31
2023-03-15T17:26:45.843Z,57.61
2023-03-15T17:31:49.014Z,57.60
2023-03-15T17:36:51.951Z,57.53
2023-03-15T17:41:55.182Z,57.80
2023-03-15T17:46:59.191Z,57.85
2023-03-15T17:52:02.600Z,58.04
2023-03-15T17:57:05.493Z,57.90
2023-03-15T18:02:16.170Z,57.92
2023-03-15T18:07:19.008Z,57.83
2023-03-15T18:12:22.904Z,57.55
2023-03-15T18:17:26.257Z,57.01
2023-03-15T18:22:29.461Z,56.83
2023-03-15T18:27:33.162Z,56.39
2023-03-15T18:32:36.172Z,55.87
2023-03-15T18:37:58.159Z,55.54
2023-03-15T18:43:01.728Z,55.40
2023-03-15T18:48:04.702Z,53.96
2023-03-15T18:53:07.701Z,54.27
2023-03-15T18:58:13.282Z,53.95
2023-03-15T19:03:16.167Z,54.15
2023-03-15T19:08:19.132Z,53.23
2023-03-15T19:13:22.516Z,53.25
2023-03-15T19:18:26.268Z,52.94
2023-03-15T19:23:29.218Z,52.67
2023-03-15T19:28:32.188Z,52.48
2023-03-15T19:33:35.963Z,52.67
2023-03-15T19:38:39.083Z,52.27
2023-03-15T19:43:43.698Z,52.15
2023-03-15T19:49:05.426Z,52.15
2023-03-15T19:54:08.422Z,52.39
2023-03-15T19:59:11.516Z,52.08
2023-03-15T20:04:14.517Z,52.01
2023-03-15T20:09:17.484Z,52.07
2023-03-15T20:14:21.117Z,52.12
2023-03-15T20:19:24.121Z,51.85
2023-03-15T20:24:27.053Z,51.79
2023-03-15T20:29:31.871Z,51.57
2023-03-15T20:34:34.863Z,51.45
2023-03-15T20:39:37.916Z,51.60
2023-03-15T20:44:42.430Z,51.78
2023-03-15T20:49:45.360Z,51.61
2023-03-15T20:54:48.327Z,51.88
2023-03-15T20:59:51.554Z,51.88
2023-03-15T21:04:54.669Z,52.22
2023-03-15T21:10:17.023Z,52.39
2023-03-15T21:15:20.688Z,52.49
2023-03-15T21:20:23.975Z,52.41
2023-03-15T21:25:27.358Z,52.53
2023-03-15T21:30:30.937Z,52.72
2023-03-15T21:35:35.028Z,52.56
2023-03-15T21:40:38.170Z,52.77
2023-03-15T21:45:42.368Z,52.32
2023-03-15T21:50:45.264Z,52.59
2023-03-15T21:55:48.074Z,52.66
2023-03-15T22:00:58.250Z,52.74
2023-03-15T22:06:01.235Z,52.27
2023-03-15T22:11:23.152Z,52.30
2023-03-15T22:16:26.363Z,52.12
2023-03-15T22:21:32.065Z,52.02
2023-03-15T22:26:36.279Z,51.93
2023-03-15T22:31:39.048Z,51.80
2023-03-15T22:36:43.093Z,51.97
2023-03-15T22:41:45.920Z,52.32
2023-03-15T22:46:48.840Z,52.28
2023-03-15T22:51:51.711Z,51.96
2023-03-15T22:56:54.571Z,52.19
2023-03-15T23:01:57.468Z,51.75
2023-03-15T23:07:00.497Z,52.13
2023-03-15T23:12:03.542Z,52.43
2023-03-15T23:17:06.627Z,52.20
2023-03-15T23:22:09.527Z,52.45
2023-03-15T23:27:13.122Z,52.33
2023-03-15T23:32:15.991Z,52.86
2023-03-15T23:37:19.297Z,52.61
2023-03-15T23:42:26.018Z,52.86
2023-03-15T23:47:29.275Z,53.02
2023-03-15T23:52:32.360Z,53.31
2023-03-15T23:57:35.671Z,53.59
